sensor_id;sensor_type;location;lat;lon;timestamp;temperature;humidity
6333;DHT22;3199;49.102;8.856;2023-08-12T00:01:21;19.90;99.90
6333;DHT22;3199;49.102;8.856;2023-08-12T00:03:47;19.90;99.90
6333;DHT22;3199;49.102;8.856;2023-08-12T00:06:13;19.90;99.90
6333;DHT22;3199;49.102;8.856;2023-08-12T00:08:39;19.80;99.90
6333;DHT22;3199;49.102;8.856;2023-08-12T00:11:04;19.80;99.90
6333;DHT22;3199;49.102;8.856;2023-08-12T00:13:30;19.80;99.90
6333;DHT22;3199;49.102;8.856;2023-08-12T00:15:56;19.80;99.90
6333;DHT22;3199;49.102;8.856;2023-08-12T00:18:22;19.80;99.90
6333;DHT22;3199;49.102;8.856;2023-08-12T00:20:48;19.80;99.90
6333;DHT22;3199;49.102;8.856;2023-08-12T00:23:13;19.80;99.90
6333;DHT22;3199;49.102;8.856;2023-08-12T00:25:39;19.70;99.90
6333;DHT22;3199;49.102;8.856;2023-08-12T00:28:04;19.80;99.90
6333;DHT22;3199;49.102;8.856;2023-08-12T00:30:30;19.80;99.90
6333;DHT22;3199;49.102;8.856;2023-08-12T00:32:55;19.70;99.90
6333;DHT22;3199;49.102;8.856;2023-08-12T00:35:21;19.70;99.90
6333;DHT22;3199;49.102;8.856;2023-08-12T00:37:47;19.70;99.90
6333;DHT22;3199;49.102;8.856;2023-08-12T00:40:13;19.60;99.90
6333;DHT22;3199;49.102;8.856;2023-08-12T00:42:39;19.60;99.90
6333;DHT22;3199;49.102;8.856;2023-08-12T00:45:09;19.60;99.90
6333;DHT22;3199;49.102;8.856;2023-08-12T00:47:35;19.60;99.90
6333;DHT22;3199;49.102;8.856;2023-08-12T00:50:01;19.60;99.90
6333;DHT22;3199;49.102;8.856;2023-08-12T00:52:27;19.50;99.90
6333;DHT22;3199;49.102;8.856;2023-08-12T00:54:53;19.50;99.90
6333;DHT22;3199;49.102;8.856;2023-08-12T00:57:18;19.50;99.90
6333;DHT22;3199;49.102;8.856;2023-08-12T00:59:44;19.50;99.90
6333;DHT22;3199;49.102;8.856;2023-08-12T01:02:12;19.50;99.90
6333;DHT22;3199;49.102;8.856;2023-08-12T01:04:37;19.50;99.90
6333;DHT22;3199;49.102;8.856;2023-08-12T01:07:03;19.50;99.90
6333;DHT22;3199;49.102;8.856;2023-08-12T01:09:29;19.50;99.90
6333;DHT22;3199;49.102;8.856;2023-08-12T01:12:03;19.50;99.90
6333;DHT22;3199;49.102;8.856;2023-08-12T01:17:18;19.50;99.90
6333;DHT22;3199;49.102;8.856;2023-08-12T01:19:44;19.60;99.90
6333;DHT22;3199;49.102;8.856;2023-08-12T01:22:12;19.60;99.90
6333;DHT22;3199;49.102;8.856;2023-08-12T01:24:39;19.50;99.90
6333;DHT22;3199;49.102;8.856;2023-08-12T01:27:06;19.50;99.90
6333;DHT22;3199;49.102;8.856;2023-08-12T01:29:33;19.50;99.90
6333;DHT22;3199;49.102;8.856;2023-08-12T01:32:07;19.50;99.90
6333;DHT22;3199;49.102;8.856;2023-08-12T01:34:50;19.50;99.90
6333;DHT22;3199;49.102;8.856;2023-08-12T01:37:28;19.50;99.90
6333;DHT22;3199;49.102;8.856;2023-08-12T01:39:55;19.50;99.90
6333;DHT22;3199;49.102;8.856;2023-08-12T01:42:23;19.50;99.90
6333;DHT22;3199;49.102;8.856;2023-08-12T01:44:49;19.50;99.90
6333;DHT22;3199;49.102;8.856;2023-08-12T01:47:15;19.50;99.90
6333;DHT22;3199;49.102;8.856;2023-08-12T01:49:40;19.60;99.90
6333;DHT22;3199;49.102;8.856;2023-08-12T01:52:06;19.60;99.90
6333;DHT22;3199;49.102;8.856;2023-08-12T01:54:31;19.60;99.90
6333;DHT22;3199;49.102;8.856;2023-08-12T01:57:05;19.60;99.90
6333;DHT22;3199;49.102;8.856;2023-08-12T01:59:32;19.60;99.90
6333;DHT22;3199;49.102;8.856;2023-08-12T02:01:57;19.60;99.90
6333;DHT22;3199;49.102;8.856;2023-08-12T02:04:23;19.60;99.90
6333;DHT22;3199;49.102;8.856;2023-08-12T02:06:48;19.60;99.90
6333;DHT22;3199;49.102;8.856;2023-08-12T02:09:15;19.60;99.90
6333;DHT22;3199;49.102;8.856;2023-08-12T02:11:40;19.70;99.90
6333;DHT22;3199;49.102;8.856;2023-08-12T02:14:06;19.70;99.90
6333;DHT22;3199;49.102;8.856;2023-08-12T02:16:31;19.70;99.90
6333;DHT22;3199;49.102;8.856;2023-08-12T02:18:57;19.70;99.90
6333;DHT22;3199;49.102;8.856;2023-08-12T02:21:22;19.60;99.90
6333;DHT22;3199;49.102;8.856;2023-08-12T02:23:48;19.60;99.90
6333;DHT22;3199;49.102;8.856;2023-08-12T02:26:13;19.70;99.90
6333;DHT22;3199;49.102;8.856;2023-08-12T02:28:39;19.70;99.90
6333;DHT22;3199;49.102;8.856;2023-08-12T02:31:04;19.60;99.90
6333;DHT22;3199;49.102;8.856;2023-08-12T02:33:30;19.60;99.90
6333;DHT22;3199;49.102;8.856;2023-08-12T02:35:55;19.60;99.90
6333;DHT22;3199;49.102;8.856;2023-08-12T02:38:21;19.60;99.90
6333;DHT22;3199;49.102;8.856;2023-08-12T02:40:50;19.60;99.90
6333;DHT22;3199;49.102;8.856;2023-08-12T02:43:18;19.50;99.90
6333;DHT22;3199;49.102;8.856;2023-08-12T02:45:44;19.50;99.90
6333;DHT22;3199;49.102;8.856;2023-08-12T02:48:10;19.50;99.90
6333;DHT22;3199;49.102;8.856;2023-08-12T02:50:36;19.50;99.90
6333;DHT22;3199;49.102;8.856;2023-08-12T02:53:02;19.60;99.90
6333;DHT22;3199;49.102;8.856;2023-08-12T02:55:28;19.60;99.90
6333;DHT22;3199;49.102;8.856;2023-08-12T02:57:54;19.60;99.90
6333;DHT22;3199;49.102;8.856;2023-08-12T03:00:20;19.60;99.90
6333;DHT22;3199;49.102;8.856;2023-08-12T03:02:45;19.70;99.90
6333;DHT22;3199;49.102;8.856;2023-08-12T03:05:11;19.70;99.90
6333;DHT22;3199;49.102;8.856;2023-08-12T03:07:36;19.70;99.90
6333;DHT22;3199;49.102;8.856;2023-08-12T03:10:02;19.70;99.90
6333;DHT22;3199;49.102;8.856;2023-08-12T03:12:28;19.60;99.90
6333;DHT22;3199;49.102;8.856;2023-08-12T03:14:53;19.60;99.90
6333;DHT22;3199;49.102;8.856;2023-08-12T03:17:18;19.60;99.90
6333;DHT22;3199;49.102;8.856;2023-08-12T03:19:44;19.60;99.90
6333;DHT22;3199;49.102;8.856;2023-08-12T03:22:10;19.70;99.90
6333;DHT22;3199;49.102;8.856;2023-08-12T03:24:35;19.70;99.90
6333;DHT22;3199;49.102;8.856;2023-08-12T03:27:01;19.70;99.90
6333;DHT22;3199;49.102;8.856;2023-08-12T03:29:26;19.70;99.90
6333;DHT22;3199;49.102;8.856;2023-08-12T03:31:52;19.70;99.90
6333;DHT22;3199;49.102;8.856;2023-08-12T03:34:17;19.70;99.90
6333;DHT22;3199;49.102;8.856;2023-08-12T03:36:43;19.70;99.90
6333;DHT22;3199;49.102;8.856;2023-08-12T03:39:09;19.70;99.90
6333;DHT22;3199;49.102;8.856;2023-08-12T03:41:34;19.70;99.90
6333;DHT22;3199;49.102;8.856;2023-08-12T03:44:00;19.70;99.90
6333;DHT22;3199;49.102;8.856;2023-08-12T03:46:25;19.70;99.90
6333;DHT22;3199;49.102;8.856;2023-08-12T03:48:51;19.80;99.90
6333;DHT22;3199;49.102;8.856;2023-08-12T03:51:16;19.90;99.90
6333;DHT22;3199;49.102;8.856;2023-08-12T03:53:42;19.90;99.90
6333;DHT22;3199;49.102;8.856;2023-08-12T03:56:07;19.90;99.90
6333;DHT22;3199;49.102;8.856;2023-08-12T03:58:33;19.90;99.90
6333;DHT22;3199;49.102;8.856;2023-08-12T04:00:58;19.90;99.90
6333;DHT22;3199;49.102;8.856;2023-08-12T04:03:24;19.80;99.90
6333;DHT22;3199;49.102;8.856;2023-08-12T04:05:51;19.80;99.90
6333;DHT22;3199;49.102;8.856;2023-08-12T04:08:19;19.80;99.90
6333;DHT22;3199;49.102;8.856;2023-08-12T04:10:46;19.80;99.90
6333;DHT22;3199;49.102;8.856;2023-08-12T04:13:13;19.80;99.90
6333;DHT22;3199;49.102;8.856;2023-08-12T04:15:39;19.80;99.90
6333;DHT22;3199;49.102;8.856;2023-08-12T04:18:05;19.80;99.90
6333;DHT22;3199;49.102;8.856;2023-08-12T04:20:30;19.80;99.90
6333;DHT22;3199;49.102;8.856;2023-08-12T04:22:56;19.80;99.90
6333;DHT22;3199;49.102;8.856;2023-08-12T04:25:22;19.90;99.90
6333;DHT22;3199;49.102;8.856;2023-08-12T04:27:47;19.90;99.90
6333;DHT22;3199;49.102;8.856;2023-08-12T04:30:15;19.90;99.90
6333;DHT22;3199;49.102;8.856;2023-08-12T04:32:41;19.90;99.90
6333;DHT22;3199;49.102;8.856;2023-08-12T04:35:07;19.90;99.90
6333;DHT22;3199;49.102;8.856;2023-08-12T04:37:33;19.90;99.90
6333;DHT22;3199;49.102;8.856;2023-08-12T04:39:59;19.90;99.90
6333;DHT22;3199;49.102;8.856;2023-08-12T04:42:24;19.90;99.90
6333;DHT22;3199;49.102;8.856;2023-08-12T04:44:50;19.90;99.90
6333;DHT22;3199;49.102;8.856;2023-08-12T04:47:15;19.90;99.90
6333;DHT22;3199;49.102;8.856;2023-08-12T04:49:41;19.90;99.90
6333;DHT22;3199;49.102;8.856;2023-08-12T04:52:07;19.90;99.90
6333;DHT22;3199;49.102;8.856;2023-08-12T04:54:33;19.90;99.90
6333;DHT22;3199;49.102;8.856;2023-08-12T04:56:58;19.90;99.90
6333;DHT22;3199;49.102;8.856;2023-08-12T04:59:25;19.90;99.90
6333;DHT22;3199;49.102;8.856;2023-08-12T05:01:50;19.90;99.90
6333;DHT22;3199;49.102;8.856;2023-08-12T05:04:16;20.00;99.90
6333;DHT22;3199;49.102;8.856;2023-08-12T05:06:41;20.00;99.90
6333;DHT22;3199;49.102;8.856;2023-08-12T05:09:07;20.10;99.90
6333;DHT22;3199;49.102;8.856;2023-08-12T05:11:33;20.20;99.90
6333;DHT22;3199;49.102;8.856;2023-08-12T05:13:59;20.20;99.90
6333;DHT22;3199;49.102;8.856;2023-08-12T05:16:24;20.20;99.90
6333;DHT22;3199;49.102;8.856;2023-08-12T05:18:50;20.20;99.90
6333;DHT22;3199;49.102;8.856;2023-08-12T05:21:16;20.20;99.90
6333;DHT22;3199;49.102;8.856;2023-08-12T05:23:41;20.20;99.90
6333;DHT22;3199;49.102;8.856;2023-08-12T05:26:07;20.30;99.90
6333;DHT22;3199;49.102;8.856;2023-08-12T05:28:32;20.30;99.90
6333;DHT22;3199;49.102;8.856;2023-08-12T05:30:58;20.30;99.90
6333;DHT22;3199;49.102;8.856;2023-08-12T05:33:23;20.40;99.90
6333;DHT22;3199;49.102;8.856;2023-08-12T05:35:49;20.50;99.90
6333;DHT22;3199;49.102;8.856;2023-08-12T05:38:15;20.70;99.90
6333;DHT22;3199;49.102;8.856;2023-08-12T05:40:41;20.80;99.90
6333;DHT22;3199;49.102;8.856;2023-08-12T05:43:07;21.10;99.90
6333;DHT22;3199;49.102;8.856;2023-08-12T05:45:32;21.20;99.90
6333;DHT22;3199;49.102;8.856;2023-08-12T05:47:58;21.40;99.90
6333;DHT22;3199;49.102;8.856;2023-08-12T05:50:23;21.60;99.90
6333;DHT22;3199;49.102;8.856;2023-08-12T05:52:49;21.70;99.90
6333;DHT22;3199;49.102;8.856;2023-08-12T05:55:14;22.10;99.90
6333;DHT22;3199;49.102;8.856;2023-08-12T05:57:40;22.50;99.90
6333;DHT22;3199;49.102;8.856;2023-08-12T06:00:06;22.60;99.90
6333;DHT22;3199;49.102;8.856;2023-08-12T06:02:32;22.70;99.90
6333;DHT22;3199;49.102;8.856;2023-08-12T06:04:57;22.70;99.90
6333;DHT22;3199;49.102;8.856;2023-08-12T06:07:23;22.80;99.90
6333;DHT22;3199;49.102;8.856;2023-08-12T06:09:49;22.80;99.90
6333;DHT22;3199;49.102;8.856;2023-08-12T06:12:15;22.90;99.90
6333;DHT22;3199;49.102;8.856;2023-08-12T06:14:41;23.10;99.90
6333;DHT22;3199;49.102;8.856;2023-08-12T06:17:07;23.70;99.90
6333;DHT22;3199;49.102;8.856;2023-08-12T06:19:33;24.40;99.90
6333;DHT22;3199;49.102;8.856;2023-08-12T06:21:58;24.70;99.90
6333;DHT22;3199;49.102;8.856;2023-08-12T06:24:24;24.80;99.90
6333;DHT22;3199;49.102;8.856;2023-08-12T06:26:49;25.10;99.90
6333;DHT22;3199;49.102;8.856;2023-08-12T06:29:15;25.30;99.90
6333;DHT22;3199;49.102;8.856;2023-08-12T06:31:41;25.40;99.90
6333;DHT22;3199;49.102;8.856;2023-08-12T06:34:06;25.40;99.90
6333;DHT22;3199;49.102;8.856;2023-08-12T06:36:32;25.50;99.90
6333;DHT22;3199;49.102;8.856;2023-08-12T06:38:58;25.50;99.90
6333;DHT22;3199;49.102;8.856;2023-08-12T06:41:23;25.40;99.90
6333;DHT22;3199;49.102;8.856;2023-08-12T06:43:49;25.50;99.90
6333;DHT22;3199;49.102;8.856;2023-08-12T06:46:14;25.50;99.90
6333;DHT22;3199;49.102;8.856;2023-08-12T06:48:40;25.50;99.90
6333;DHT22;3199;49.102;8.856;2023-08-12T06:51:06;25.50;99.90
6333;DHT22;3199;49.102;8.856;2023-08-12T06:53:36;25.40;99.90
6333;DHT22;3199;49.102;8.856;2023-08-12T06:56:02;25.40;99.90
6333;DHT22;3199;49.102;8.856;2023-08-12T06:58:28;25.60;99.90
6333;DHT22;3199;49.102;8.856;2023-08-12T07:00:53;26.40;99.90
6333;DHT22;3199;49.102;8.856;2023-08-12T07:03:19;27.20;99.90
6333;DHT22;3199;49.102;8.856;2023-08-12T07:05:45;27.50;99.90
6333;DHT22;3199;49.102;8.856;2023-08-12T07:08:10;27.70;99.90
6333;DHT22;3199;49.102;8.856;2023-08-12T07:10:40;27.80;99.90
6333;DHT22;3199;49.102;8.856;2023-08-12T07:13:06;27.80;99.90
6333;DHT22;3199;49.102;8.856;2023-08-12T07:15:31;27.70;99.90
6333;DHT22;3199;49.102;8.856;2023-08-12T07:17:57;27.70;99.90
6333;DHT22;3199;49.102;8.856;2023-08-12T07:20:24;27.70;99.90
6333;DHT22;3199;49.102;8.856;2023-08-12T07:22:49;27.70;99.90
6333;DHT22;3199;49.102;8.856;2023-08-12T07:25:15;27.40;99.90
6333;DHT22;3199;49.102;8.856;2023-08-12T07:27:40;27.10;99.90
6333;DHT22;3199;49.102;8.856;2023-08-12T07:30:07;27.00;99.90
6333;DHT22;3199;49.102;8.856;2023-08-12T07:32:33;26.80;99.90
6333;DHT22;3199;49.102;8.856;2023-08-12T07:34:58;26.80;99.90
6333;DHT22;3199;49.102;8.856;2023-08-12T07:37:25;26.70;99.90
6333;DHT22;3199;49.102;8.856;2023-08-12T07:39:51;26.60;99.90
6333;DHT22;3199;49.102;8.856;2023-08-12T07:42:16;27.00;99.90
6333;DHT22;3199;49.102;8.856;2023-08-12T07:44:43;28.00;99.90
6333;DHT22;3199;49.102;8.856;2023-08-12T07:47:08;28.60;99.20
6333;DHT22;3199;49.102;8.856;2023-08-12T07:49:35;28.50;98.70
6333;DHT22;3199;49.102;8.856;2023-08-12T07:52:01;28.50;98.50
6333;DHT22;3199;49.102;8.856;2023-08-12T07:54:26;28.40;98.90
6333;DHT22;3199;49.102;8.856;2023-08-12T07:56:52;28.30;99.00
6333;DHT22;3199;49.102;8.856;2023-08-12T07:59:21;28.20;98.90
6333;DHT22;3199;49.102;8.856;2023-08-12T08:01:46;28.20;99.10
6333;DHT22;3199;49.102;8.856;2023-08-12T08:04:12;28.10;99.40
6333;DHT22;3199;49.102;8.856;2023-08-12T08:06:38;28.30;99.40
6333;DHT22;3199;49.102;8.856;2023-08-12T08:09:03;28.60;99.20
6333;DHT22;3199;49.102;8.856;2023-08-12T08:11:30;28.60;99.00
6333;DHT22;3199;49.102;8.856;2023-08-12T08:13:58;28.70;98.00
6333;DHT22;3199;49.102;8.856;2023-08-12T08:16:23;28.80;98.50
6333;DHT22;3199;49.102;8.856;2023-08-12T08:18:49;29.00;97.90
6333;DHT22;3199;49.102;8.856;2023-08-12T08:21:15;29.00;97.50
6333;DHT22;3199;49.102;8.856;2023-08-12T08:23:41;28.90;97.60
6333;DHT22;3199;49.102;8.856;2023-08-12T08:26:07;28.70;97.60
6333;DHT22;3199;49.102;8.856;2023-08-12T08:28:32;28.50;98.00
6333;DHT22;3199;49.102;8.856;2023-08-12T08:30:58;28.20;98.30
6333;DHT22;3199;49.102;8.856;2023-08-12T08:33:25;28.20;98.70
6333;DHT22;3199;49.102;8.856;2023-08-12T08:35:51;28.80;98.90
6333;DHT22;3199;49.102;8.856;2023-08-12T08:38:17;29.60;98.10
6333;DHT22;3199;49.102;8.856;2023-08-12T08:40:42;30.40;97.60
6333;DHT22;3199;49.102;8.856;2023-08-12T08:43:08;31.00;95.70
6333;DHT22;3199;49.102;8.856;2023-08-12T08:45:34;31.70;95.00
6333;DHT22;3199;49.102;8.856;2023-08-12T08:48:01;32.30;93.30
6333;DHT22;3199;49.102;8.856;2023-08-12T08:50:30;32.80;93.70
6333;DHT22;3199;49.102;8.856;2023-08-12T08:52:56;33.30;91.80
6333;DHT22;3199;49.102;8.856;2023-08-12T08:55:22;33.60;90.70
6333;DHT22;3199;49.102;8.856;2023-08-12T08:57:48;33.30;88.10
6333;DHT22;3199;49.102;8.856;2023-08-12T09:00:15;33.00;88.40
6333;DHT22;3199;49.102;8.856;2023-08-12T09:02:43;33.00;89.80
6333;DHT22;3199;49.102;8.856;2023-08-12T09:05:09;33.20;90.50
6333;DHT22;3199;49.102;8.856;2023-08-12T09:07:35;33.60;90.20
6333;DHT22;3199;49.102;8.856;2023-08-12T09:10:01;34.00;87.90
6333;DHT22;3199;49.102;8.856;2023-08-12T09:12:29;34.20;87.90
6333;DHT22;3199;49.102;8.856;2023-08-12T09:14:56;34.30;86.50
6333;DHT22;3199;49.102;8.856;2023-08-12T09:17:22;34.30;84.80
6333;DHT22;3199;49.102;8.856;2023-08-12T09:19:47;34.30;85.40
6333;DHT22;3199;49.102;8.856;2023-08-12T09:22:14;34.50;83.50
6333;DHT22;3199;49.102;8.856;2023-08-12T09:24:40;34.60;83.60
6333;DHT22;3199;49.102;8.856;2023-08-12T09:27:05;35.00;84.50
6333;DHT22;3199;49.102;8.856;2023-08-12T09:29:33;35.20;82.70
6333;DHT22;3199;49.102;8.856;2023-08-12T09:32:21;35.20;79.80
6333;DHT22;3199;49.102;8.856;2023-08-12T09:34:53;35.00;80.10
6333;DHT22;3199;49.102;8.856;2023-08-12T09:37:19;35.00;79.50
6333;DHT22;3199;49.102;8.856;2023-08-12T09:39:46;35.00;78.60
6333;DHT22;3199;49.102;8.856;2023-08-12T09:42:12;34.90;78.60
6333;DHT22;3199;49.102;8.856;2023-08-12T09:44:38;34.80;77.40
6333;DHT22;3199;49.102;8.856;2023-08-12T09:47:06;34.80;77.50
6333;DHT22;3199;49.102;8.856;2023-08-12T09:49:31;34.80;78.10
6333;DHT22;3199;49.102;8.856;2023-08-12T09:51:57;34.50;78.60
6333;DHT22;3199;49.102;8.856;2023-08-12T09:54:26;34.40;79.70
6333;DHT22;3199;49.102;8.856;2023-08-12T09:56:56;34.30;80.20
6333;DHT22;3199;49.102;8.856;2023-08-12T09:59:22;34.30;79.60
6333;DHT22;3199;49.102;8.856;2023-08-12T10:01:49;34.20;80.20
6333;DHT22;3199;49.102;8.856;2023-08-12T10:04:18;34.20;80.50
6333;DHT22;3199;49.102;8.856;2023-08-12T10:06:47;34.10;80.10
6333;DHT22;3199;49.102;8.856;2023-08-12T10:09:15;34.00;81.30
6333;DHT22;3199;49.102;8.856;2023-08-12T10:11:41;34.10;81.40
6333;DHT22;3199;49.102;8.856;2023-08-12T10:14:09;34.20;81.00
6333;DHT22;3199;49.102;8.856;2023-08-12T10:16:34;34.20;81.50
6333;DHT22;3199;49.102;8.856;2023-08-12T10:19:02;34.60;81.60
6333;DHT22;3199;49.102;8.856;2023-08-12T10:21:29;35.10;80.80
6333;DHT22;3199;49.102;8.856;2023-08-12T10:23:57;35.30;77.40
6333;DHT22;3199;49.102;8.856;2023-08-12T10:26:24;35.40;75.80
6333;DHT22;3199;49.102;8.856;2023-08-12T10:28:49;35.60;75.90
6333;DHT22;3199;49.102;8.856;2023-08-12T10:31:15;35.80;74.80
6333;DHT22;3199;49.102;8.856;2023-08-12T10:33:41;36.00;75.10
6333;DHT22;3199;49.102;8.856;2023-08-12T10:36:08;36.30;73.40
6333;DHT22;3199;49.102;8.856;2023-08-12T10:38:34;36.30;72.20
6333;DHT22;3199;49.102;8.856;2023-08-12T10:41:21;36.30;73.00
6333;DHT22;3199;49.102;8.856;2023-08-12T10:43:53;36.30;71.10
6333;DHT22;3199;49.102;8.856;2023-08-12T10:46:32;35.90;72.00
6333;DHT22;3199;49.102;8.856;2023-08-12T10:49:08;35.60;73.20
6333;DHT22;3199;49.102;8.856;2023-08-12T11:02:31;34.00;73.70
6333;DHT22;3199;49.102;8.856;2023-08-12T11:05:08;33.80;76.10
6333;DHT22;3199;49.102;8.856;2023-08-12T11:07:37;34.10;76.80
6333;DHT22;3199;49.102;8.856;2023-08-12T11:10:14;34.20;76.00
6333;DHT22;3199;49.102;8.856;2023-08-12T11:12:47;34.50;74.40
6333;DHT22;3199;49.102;8.856;2023-08-12T11:15:12;35.10;74.20
6333;DHT22;3199;49.102;8.856;2023-08-12T11:17:42;35.30;73.70
6333;DHT22;3199;49.102;8.856;2023-08-12T11:20:09;35.00;73.20
6333;DHT22;3199;49.102;8.856;2023-08-12T11:22:37;34.40;73.60
6333;DHT22;3199;49.102;8.856;2023-08-12T11:25:05;34.00;74.50
6333;DHT22;3199;49.102;8.856;2023-08-12T11:27:44;33.90;76.50
6333;DHT22;3199;49.102;8.856;2023-08-12T11:30:15;33.40;75.60
6333;DHT22;3199;49.102;8.856;2023-08-12T11:32:42;32.90;76.70
6333;DHT22;3199;49.102;8.856;2023-08-12T11:35:08;32.50;78.50
6333;DHT22;3199;49.102;8.856;2023-08-12T11:37:38;32.20;78.80
6333;DHT22;3199;49.102;8.856;2023-08-12T11:40:08;31.70;81.70
6333;DHT22;3199;49.102;8.856;2023-08-12T11:42:38;31.40;84.00
6333;DHT22;3199;49.102;8.856;2023-08-12T11:45:05;31.10;85.60
6333;DHT22;3199;49.102;8.856;2023-08-12T11:47:31;31.00;89.00
6333;DHT22;3199;49.102;8.856;2023-08-12T11:49:57;30.70;89.50
6333;DHT22;3199;49.102;8.856;2023-08-12T11:52:22;30.40;90.50
6333;DHT22;3199;49.102;8.856;2023-08-12T11:54:49;30.30;91.10
6333;DHT22;3199;49.102;8.856;2023-08-12T11:57:16;30.00;92.80
6333;DHT22;3199;49.102;8.856;2023-08-12T11:59:42;29.70;95.40
6333;DHT22;3199;49.102;8.856;2023-08-12T12:02:08;29.60;97.50
6333;DHT22;3199;49.102;8.856;2023-08-12T12:04:34;29.50;99.40
6333;DHT22;3199;49.102;8.856;2023-08-12T12:07:00;29.40;99.90
6333;DHT22;3199;49.102;8.856;2023-08-12T12:09:31;29.60;99.90
6333;DHT22;3199;49.102;8.856;2023-08-12T12:11:57;29.80;99.90
6333;DHT22;3199;49.102;8.856;2023-08-12T12:14:24;29.90;99.90
6333;DHT22;3199;49.102;8.856;2023-08-12T12:16:49;30.00;99.90
6333;DHT22;3199;49.102;8.856;2023-08-12T12:19:18;30.00;99.90
6333;DHT22;3199;49.102;8.856;2023-08-12T12:21:50;30.00;99.90
6333;DHT22;3199;49.102;8.856;2023-08-12T12:24:16;29.90;99.90
6333;DHT22;3199;49.102;8.856;2023-08-12T12:26:43;29.70;99.90
6333;DHT22;3199;49.102;8.856;2023-08-12T12:29:09;29.60;99.90
6333;DHT22;3199;49.102;8.856;2023-08-12T12:31:39;29.60;99.90
6333;DHT22;3199;49.102;8.856;2023-08-12T12:34:05;29.80;99.90
6333;DHT22;3199;49.102;8.856;2023-08-12T12:36:34;30.10;99.90
6333;DHT22;3199;49.102;8.856;2023-08-12T12:39:00;30.60;99.90
6333;DHT22;3199;49.102;8.856;2023-08-12T12:41:26;30.80;99.80
6333;DHT22;3199;49.102;8.856;2023-08-12T12:43:51;30.90;99.40
6333;DHT22;3199;49.102;8.856;2023-08-12T12:46:17;31.00;99.60
6333;DHT22;3199;49.102;8.856;2023-08-12T12:48:43;31.20;99.30
6333;DHT22;3199;49.102;8.856;2023-08-12T12:51:09;31.30;98.60
6333;DHT22;3199;49.102;8.856;2023-08-12T12:53:34;31.40;98.70
6333;DHT22;3199;49.102;8.856;2023-08-12T12:56:00;31.50;98.20
6333;DHT22;3199;49.102;8.856;2023-08-12T12:58:33;31.60;97.90
6333;DHT22;3199;49.102;8.856;2023-08-12T13:01:00;31.80;97.50
6333;DHT22;3199;49.102;8.856;2023-08-12T13:03:25;32.10;97.30
6333;DHT22;3199;49.102;8.856;2023-08-12T13:05:51;32.30;96.70
6333;DHT22;3199;49.102;8.856;2023-08-12T13:08:17;32.30;94.70
6333;DHT22;3199;49.102;8.856;2023-08-12T13:10:43;32.20;95.10
6333;DHT22;3199;49.102;8.856;2023-08-12T13:13:09;32.10;95.30
6333;DHT22;3199;49.102;8.856;2023-08-12T13:15:35;32.00;94.90
6333;DHT22;3199;49.102;8.856;2023-08-12T13:18:00;31.80;95.00
6333;DHT22;3199;49.102;8.856;2023-08-12T13:20:26;31.60;95.10
6333;DHT22;3199;49.102;8.856;2023-08-12T13:22:51;31.20;95.20
6333;DHT22;3199;49.102;8.856;2023-08-12T13:25:17;31.00;96.30
6333;DHT22;3199;49.102;8.856;2023-08-12T13:27:43;30.90;96.60
6333;DHT22;3199;49.102;8.856;2023-08-12T13:30:09;30.70;96.10
6333;DHT22;3199;49.102;8.856;2023-08-12T13:32:36;30.70;96.70
6333;DHT22;3199;49.102;8.856;2023-08-12T13:35:03;30.50;96.50
6333;DHT22;3199;49.102;8.856;2023-08-12T13:37:29;30.40;96.80
6333;DHT22;3199;49.102;8.856;2023-08-12T13:39:54;30.30;97.20
6333;DHT22;3199;49.102;8.856;2023-08-12T13:42:20;30.20;97.50
6333;DHT22;3199;49.102;8.856;2023-08-12T13:44:45;30.20;97.20
6333;DHT22;3199;49.102;8.856;2023-08-12T13:47:11;30.00;97.30
6333;DHT22;3199;49.102;8.856;2023-08-12T13:49:36;30.00;97.70
6333;DHT22;3199;49.102;8.856;2023-08-12T13:52:02;30.00;97.90
6333;DHT22;3199;49.102;8.856;2023-08-12T13:54:28;30.00;97.90
6333;DHT22;3199;49.102;8.856;2023-08-12T13:56:53;30.10;97.80
6333;DHT22;3199;49.102;8.856;2023-08-12T13:59:19;30.10;97.80
6333;DHT22;3199;49.102;8.856;2023-08-12T14:01:45;30.00;98.00
6333;DHT22;3199;49.102;8.856;2023-08-12T14:04:10;30.10;98.40
6333;DHT22;3199;49.102;8.856;2023-08-12T14:06:36;30.10;98.00
6333;DHT22;3199;49.102;8.856;2023-08-12T14:09:02;30.10;98.30
6333;DHT22;3199;49.102;8.856;2023-08-12T14:11:27;30.10;98.00
6333;DHT22;3199;49.102;8.856;2023-08-12T14:13:53;30.20;98.50
6333;DHT22;3199;49.102;8.856;2023-08-12T14:16:19;30.30;98.40
6333;DHT22;3199;49.102;8.856;2023-08-12T14:18:44;30.40;98.20
6333;DHT22;3199;49.102;8.856;2023-08-12T14:21:10;30.40;98.10
6333;DHT22;3199;49.102;8.856;2023-08-12T14:23:35;30.50;98.30
6333;DHT22;3199;49.102;8.856;2023-08-12T14:26:01;30.60;97.90
6333;DHT22;3199;49.102;8.856;2023-08-12T14:28:26;30.40;97.60
6333;DHT22;3199;49.102;8.856;2023-08-12T14:30:53;30.30;97.70
6333;DHT22;3199;49.102;8.856;2023-08-12T14:33:19;30.30;97.80
6333;DHT22;3199;49.102;8.856;2023-08-12T14:35:45;30.30;98.10
6333;DHT22;3199;49.102;8.856;2023-08-12T14:38:10;30.30;97.90
6333;DHT22;3199;49.102;8.856;2023-08-12T14:40:36;30.30;97.90
6333;DHT22;3199;49.102;8.856;2023-08-12T14:43:01;30.20;98.00
6333;DHT22;3199;49.102;8.856;2023-08-12T14:45:27;30.00;98.00
6333;DHT22;3199;49.102;8.856;2023-08-12T14:47:52;29.90;97.90
6333;DHT22;3199;49.102;8.856;2023-08-12T14:50:18;29.90;98.40
6333;DHT22;3199;49.102;8.856;2023-08-12T14:52:43;29.70;98.50
6333;DHT22;3199;49.102;8.856;2023-08-12T14:55:09;29.60;98.60
6333;DHT22;3199;49.102;8.856;2023-08-12T14:57:34;29.50;98.70
6333;DHT22;3199;49.102;8.856;2023-08-12T15:00:00;29.30;98.80
6333;DHT22;3199;49.102;8.856;2023-08-12T15:02:25;29.20;98.90
6333;DHT22;3199;49.102;8.856;2023-08-12T15:04:51;28.90;99.10
6333;DHT22;3199;49.102;8.856;2023-08-12T15:07:16;28.60;99.20
6333;DHT22;3199;49.102;8.856;2023-08-12T15:09:44;28.40;99.80
6333;DHT22;3199;49.102;8.856;2023-08-12T15:12:09;28.20;99.90
6333;DHT22;3199;49.102;8.856;2023-08-12T15:14:35;28.00;99.90
6333;DHT22;3199;49.102;8.856;2023-08-12T15:17:00;27.90;99.90
6333;DHT22;3199;49.102;8.856;2023-08-12T15:19:26;27.80;99.90
6333;DHT22;3199;49.102;8.856;2023-08-12T15:21:51;27.60;99.90
6333;DHT22;3199;49.102;8.856;2023-08-12T15:24:17;27.40;99.90
6333;DHT22;3199;49.102;8.856;2023-08-12T15:26:42;27.20;99.90
6333;DHT22;3199;49.102;8.856;2023-08-12T15:29:08;26.90;99.90
6333;DHT22;3199;49.102;8.856;2023-08-12T15:31:34;26.70;99.90
6333;DHT22;3199;49.102;8.856;2023-08-12T15:34:00;26.50;99.90
6333;DHT22;3199;49.102;8.856;2023-08-12T15:36:25;26.30;99.90
6333;DHT22;3199;49.102;8.856;2023-08-12T15:38:51;26.20;99.90
6333;DHT22;3199;49.102;8.856;2023-08-12T15:41:16;26.00;99.90
6333;DHT22;3199;49.102;8.856;2023-08-12T15:43:42;25.90;99.90
6333;DHT22;3199;49.102;8.856;2023-08-12T15:46:08;25.80;99.90
6333;DHT22;3199;49.102;8.856;2023-08-12T15:48:34;25.70;99.90
6333;DHT22;3199;49.102;8.856;2023-08-12T15:51:00;25.60;99.90
6333;DHT22;3199;49.102;8.856;2023-08-12T15:53:26;25.50;99.90
6333;DHT22;3199;49.102;8.856;2023-08-12T15:55:52;25.30;99.90
6333;DHT22;3199;49.102;8.856;2023-08-12T15:58:18;25.20;99.90
6333;DHT22;3199;49.102;8.856;2023-08-12T16:00:45;25.10;99.90
6333;DHT22;3199;49.102;8.856;2023-08-12T16:03:14;24.90;99.90
6333;DHT22;3199;49.102;8.856;2023-08-12T16:05:41;24.80;99.90
6333;DHT22;3199;49.102;8.856;2023-08-12T16:08:06;24.60;99.90
6333;DHT22;3199;49.102;8.856;2023-08-12T16:10:34;24.50;99.90